sensor_id;sensor_type;location;lat;lon;timestamp;pressure;altitude;pressure_sealevel;temperature;humidity
10310;BME280;5200;43.236;27.986;2023-01-30T00:00:51;100477.75;;;-0.89;100.00
10310;BME280;5200;43.236;27.986;2023-01-30T00:03:20;100474.22;;;-0.87;100.00
10310;BME280;5200;43.236;27.986;2023-01-30T00:05:47;100478.47;;;-0.86;100.00
10310;BME280;5200;43.236;27.986;2023-01-30T00:08:14;100473.31;;;-0.86;100.00
10310;BME280;5200;43.236;27.986;2023-01-30T00:10:41;100475.03;;;-0.84;99.80
10310;BME280;5200;43.236;27.986;2023-01-30T00:13:08;100478.59;;;-0.89;99.17
10310;BME280;5200;43.236;27.986;2023-01-30T00:15:35;100461.94;;;-1.05;99.50
10310;BME280;5200;43.236;27.986;2023-01-30T00:18:02;100486.38;;;-0.90;99.53
10310;BME280;5200;43.236;27.986;2023-01-30T00:20:31;100482.13;;;-0.91;99.58
10310;BME280;5200;43.236;27.986;2023-01-30T00:22:58;100484.50;;;-0.85;99.93
10310;BME280;5200;43.236;27.986;2023-01-30T00:25:25;100479.31;;;-0.85;99.93
10310;BME280;5200;43.236;27.986;2023-01-30T00:27:52;100478.38;;;-0.82;99.79
10310;BME280;5200;43.236;27.986;2023-01-30T00:30:19;100460.69;;;-0.93;100.00
10310;BME280;5200;43.236;27.986;2023-01-30T00:32:53;100477.16;;;-0.72;99.22
10310;BME280;5200;43.236;27.986;2023-01-30T00:35:20;100475.13;;;-0.64;98.78
10310;BME280;5200;43.236;27.986;2023-01-30T00:37:48;100473.38;;;-0.64;98.92
10310;BME280;5200;43.236;27.986;2023-01-30T00:40:16;100466.44;;;-0.61;99.74
10310;BME280;5200;43.236;27.986;2023-01-30T00:42:42;100454.53;;;-0.66;99.27
10310;BME280;5200;43.236;27.986;2023-01-30T00:45:27;100460.66;;;-0.68;99.53
10310;BME280;5200;43.236;27.986;2023-01-30T00:48:11;100461.59;;;-0.71;99.76
10310;BME280;5200;43.236;27.986;2023-01-30T00:50:38;100460.88;;;-0.74;100.00
10310;BME280;5200;43.236;27.986;2023-01-30T00:53:11;100450.03;;;-0.84;100.00
10310;BME280;5200;43.236;27.986;2023-01-30T00:55:38;100459.94;;;-0.73;100.00
10310;BME280;5200;43.236;27.986;2023-01-30T00:58:05;100464.25;;;-0.72;100.00
10310;BME280;5200;43.236;27.986;2023-01-30T01:00:33;100456.31;;;-0.68;99.88
10310;BME280;5200;43.236;27.986;2023-01-30T01:03:00;100445.41;;;-0.76;100.00
10310;BME280;5200;43.236;27.986;2023-01-30T01:05:27;100457.72;;;-0.59;99.87
10310;BME280;5200;43.236;27.986;2023-01-30T01:07:54;100449.28;;;-0.64;99.04
10310;BME280;5200;43.236;27.986;2023-01-30T01:10:22;100451.19;;;-0.69;99.84
10310;BME280;5200;43.236;27.986;2023-01-30T01:12:50;100457.28;;;-0.70;99.59
10310;BME280;5200;43.236;27.986;2023-01-30T01:15:18;100448.81;;;-0.75;99.63
10310;BME280;5200;43.236;27.986;2023-01-30T01:17:45;100452.00;;;-0.67;100.00
10310;BME280;5200;43.236;27.986;2023-01-30T01:20:12;100409.63;;;-0.87;99.29
10310;BME280;5200;43.236;27.986;2023-01-30T01:22:39;100406.38;;;-0.92;99.31
10310;BME280;5200;43.236;27.986;2023-01-30T01:25:07;100438.31;;;-0.71;99.28
10310;BME280;5200;43.236;27.986;2023-01-30T01:27:35;100417.56;;;-0.91;99.49
10310;BME280;5200;43.236;27.986;2023-01-30T01:30:03;100410.75;;;-0.94;99.35
10310;BME280;5200;43.236;27.986;2023-01-30T01:32:30;100425.84;;;-0.83;99.06
10310;BME280;5200;43.236;27.986;2023-01-30T01:34:57;100435.91;;;-0.75;100.00
10310;BME280;5200;43.236;27.986;2023-01-30T01:37:24;100443.78;;;-0.78;99.89
10310;BME280;5200;43.236;27.986;2023-01-30T01:39:51;100424.66;;;-0.98;99.29
10310;BME280;5200;43.236;27.986;2023-01-30T01:42:37;100441.44;;;-0.84;99.99
10310;BME280;5200;43.236;27.986;2023-01-30T01:45:13;100436.16;;;-0.81;99.27
10310;BME280;5200;43.236;27.986;2023-01-30T01:47:46;100433.56;;;-0.81;99.67
10310;BME280;5200;43.236;27.986;2023-01-30T01:50:18;100435.81;;;-0.72;98.59
10310;BME280;5200;43.236;27.986;2023-01-30T01:52:48;100434.19;;;-0.75;98.32
10310;BME280;5200;43.236;27.986;2023-01-30T01:55:19;100424.69;;;-0.74;97.80
10310;BME280;5200;43.236;27.986;2023-01-30T01:57:50;100429.84;;;-0.74;97.76
10310;BME280;5200;43.236;27.986;2023-01-30T02:00:20;100426.44;;;-0.75;98.29
10310;BME280;5200;43.236;27.986;2023-01-30T02:02:50;100424.91;;;-0.80;98.92
10310;BME280;5200;43.236;27.986;2023-01-30T02:05:20;100425.84;;;-0.83;99.74
10310;BME280;5200;43.236;27.986;2023-01-30T02:07:50;100423.44;;;-0.88;100.00
10310;BME280;5200;43.236;27.986;2023-01-30T02:10:21;100428.72;;;-0.91;100.00
10310;BME280;5200;43.236;27.986;2023-01-30T02:12:51;100426.13;;;-0.91;100.00
10310;BME280;5200;43.236;27.986;2023-01-30T02:15:18;100420.38;;;-0.99;100.00
10310;BME280;5200;43.236;27.986;2023-01-30T02:17:45;100420.19;;;-0.93;100.00
10310;BME280;5200;43.236;27.986;2023-01-30T02:20:18;100429.44;;;-0.87;100.00
10310;BME280;5200;43.236;27.986;2023-01-30T02:26:15;100413.72;;;-0.81;100.00
10310;BME280;5200;43.236;27.986;2023-01-30T02:29:29;100427.94;;;-0.69;100.00
10310;BME280;5200;43.236;27.986;2023-01-30T02:32:04;100415.31;;;-0.77;100.00
10310;BME280;5200;43.236;27.986;2023-01-30T02:34:41;100415.19;;;-0.74;99.53
10310;BME280;5200;43.236;27.986;2023-01-30T02:37:20;100396.94;;;-0.93;100.00
10310;BME280;5200;43.236;27.986;2023-01-30T02:40:00;100383.47;;;-1.01;100.00
10310;BME280;5200;43.236;27.986;2023-01-30T02:42:36;100395.13;;;-0.91;100.00
10310;BME280;5200;43.236;27.986;2023-01-30T02:45:09;100384.22;;;-0.99;100.00
10310;BME280;5200;43.236;27.986;2023-01-30T02:47:43;100407.22;;;-0.91;100.00
10310;BME280;5200;43.236;27.986;2023-01-30T02:50:16;100383.84;;;-1.12;100.00
10310;BME280;5200;43.236;27.986;2023-01-30T02:52:46;100419.06;;;-0.86;100.00
10310;BME280;5200;43.236;27.986;2023-01-30T02:55:18;100387.91;;;-1.06;100.00
10310;BME280;5200;43.236;27.986;2023-01-30T02:57:46;100416.59;;;-0.89;100.00
10310;BME280;5200;43.236;27.986;2023-01-30T03:00:16;100405.50;;;-0.92;100.00
10310;BME280;5200;43.236;27.986;2023-01-30T03:02:58;100418.22;;;-0.86;100.00
10310;BME280;5200;43.236;27.986;2023-01-30T03:05:56;100382.72;;;-1.04;100.00
10310;BME280;5200;43.236;27.986;2023-01-30T03:08:31;100384.22;;;-0.99;100.00
10310;BME280;5200;43.236;27.986;2023-01-30T03:11:01;100409.34;;;-0.79;100.00
10310;BME280;5200;43.236;27.986;2023-01-30T03:13:39;100405.31;;;-0.86;100.00
10310;BME280;5200;43.236;27.986;2023-01-30T03:16:13;100386.75;;;-0.97;100.00
10310;BME280;5200;43.236;27.986;2023-01-30T03:18:43;100400.97;;;-0.86;100.00
10310;BME280;5200;43.236;27.986;2023-01-30T03:21:11;100380.13;;;-1.04;100.00
10310;BME280;5200;43.236;27.986;2023-01-30T03:23:38;100364.81;;;-1.09;100.00
10310;BME280;5200;43.236;27.986;2023-01-30T03:26:08;100376.09;;;-1.12;100.00
10310;BME280;5200;43.236;27.986;2023-01-30T03:28:38;100409.06;;;-0.95;100.00
10310;BME280;5200;43.236;27.986;2023-01-30T03:31:06;100405.00;;;-1.02;100.00
10310;BME280;5200;43.236;27.986;2023-01-30T03:33:34;100381.28;;;-1.13;100.00
10310;BME280;5200;43.236;27.986;2023-01-30T03:36:03;100411.09;;;-1.03;100.00
10310;BME280;5200;43.236;27.986;2023-01-30T03:38:30;100391.41;;;-1.07;100.00
10310;BME280;5200;43.236;27.986;2023-01-30T03:40:56;100368.03;;;-1.28;100.00
10310;BME280;5200;43.236;27.986;2023-01-30T03:43:23;100371.28;;;-1.22;100.00
10310;BME280;5200;43.236;27.986;2023-01-30T03:45:50;100361.41;;;-1.35;100.00
10310;BME280;5200;43.236;27.986;2023-01-30T03:48:17;100408.59;;;-1.06;100.00
10310;BME280;5200;43.236;27.986;2023-01-30T03:50:44;100405.13;;;-1.05;100.00
10310;BME280;5200;43.236;27.986;2023-01-30T03:53:12;100378.28;;;-1.24;100.00
10310;BME280;5200;43.236;27.986;2023-01-30T03:55:39;100385.84;;;-1.20;100.00
10310;BME280;5200;43.236;27.986;2023-01-30T03:58:06;100400.41;;;-1.17;100.00
10310;BME280;5200;43.236;27.986;2023-01-30T04:00:33;100388.47;;;-1.21;100.00
10310;BME280;5200;43.236;27.986;2023-01-30T04:02:59;100385.00;;;-1.20;100.00
10310;BME280;5200;43.236;27.986;2023-01-30T04:05:26;100390.16;;;-1.20;100.00
10310;BME280;5200;43.236;27.986;2023-01-30T04:07:55;100392.91;;;-1.25;100.00
10310;BME280;5200;43.236;27.986;2023-01-30T04:10:24;100385.94;;;-1.23;100.00
10310;BME280;5200;43.236;27.986;2023-01-30T04:12:51;100376.44;;;-1.22;100.00
10310;BME280;5200;43.236;27.986;2023-01-30T04:15:18;100390.06;;;-1.17;100.00
10310;BME280;5200;43.236;27.986;2023-01-30T04:17:45;100384.78;;;-1.14;100.00
10310;BME280;5200;43.236;27.986;2023-01-30T04:20:12;100374.09;;;-1.29;100.00
10310;BME280;5200;43.236;27.986;2023-01-30T04:22:39;100377.56;;;-1.30;100.00
10310;BME280;5200;43.236;27.986;2023-01-30T04:25:06;100386.78;;;-1.22;100.00
10310;BME280;5200;43.236;27.986;2023-01-30T04:27:35;100395.47;;;-1.25;100.00
10310;BME280;5200;43.236;27.986;2023-01-30T04:30:02;100391.34;;;-1.29;100.00
10310;BME280;5200;43.236;27.986;2023-01-30T04:32:29;100393.91;;;-1.29;100.00
10310;BME280;5200;43.236;27.986;2023-01-30T04:34:56;100397.53;;;-1.35;100.00
10310;BME280;5200;43.236;27.986;2023-01-30T04:37:22;100389.78;;;-1.35;100.00
10310;BME280;5200;43.236;27.986;2023-01-30T04:39:49;100399.44;;;-1.40;100.00
10310;BME280;5200;43.236;27.986;2023-01-30T04:42:16;100380.56;;;-1.42;100.00
10310;BME280;5200;43.236;27.986;2023-01-30T04:44:44;100391.69;;;-1.40;100.00
10310;BME280;5200;43.236;27.986;2023-01-30T04:47:11;100394.16;;;-1.37;100.00
10310;BME280;5200;43.236;27.986;2023-01-30T04:49:38;100392.69;;;-1.44;100.00
10310;BME280;5200;43.236;27.986;2023-01-30T04:52:05;100391.00;;;-1.45;100.00
10310;BME280;5200;43.236;27.986;2023-01-30T04:54:32;100385.84;;;-1.45;100.00
10310;BME280;5200;43.236;27.986;2023-01-30T04:56:59;100383.03;;;-1.39;100.00
10310;BME280;5200;43.236;27.986;2023-01-30T04:59:26;100367.94;;;-1.50;100.00
10310;BME280;5200;43.236;27.986;2023-01-30T05:01:54;100355.19;;;-1.54;100.00
10310;BME280;5200;43.236;27.986;2023-01-30T05:04:21;100388.19;;;-1.39;100.00
10310;BME280;5200;43.236;27.986;2023-01-30T05:06:48;100356.19;;;-1.58;100.00
10310;BME280;5200;43.236;27.986;2023-01-30T05:09:15;100378.91;;;-1.43;100.00
10310;BME280;5200;43.236;27.986;2023-01-30T05:11:42;100371.31;;;-1.47;100.00
10310;BME280;5200;43.236;27.986;2023-01-30T05:14:09;100387.53;;;-1.44;100.00
10310;BME280;5200;43.236;27.986;2023-01-30T05:16:36;100347.06;;;-1.68;100.00
10310;BME280;5200;43.236;27.986;2023-01-30T05:19:04;100379.75;;;-1.42;100.00
10310;BME280;5200;43.236;27.986;2023-01-30T05:21:31;100375.69;;;-1.50;100.00
10310;BME280;5200;43.236;27.986;2023-01-30T05:23:57;100379.94;;;-1.49;100.00
10310;BME280;5200;43.236;27.986;2023-01-30T05:26:24;100350.44;;;-1.66;100.00
10310;BME280;5200;43.236;27.986;2023-01-30T05:28:52;100382.47;;;-1.47;100.00
10310;BME280;5200;43.236;27.986;2023-01-30T05:31:19;100384.25;;;-1.49;100.00
10310;BME280;5200;43.236;27.986;2023-01-30T05:33:47;100380.81;;;-1.48;100.00
10310;BME280;5200;43.236;27.986;2023-01-30T05:36:18;100367.19;;;-1.53;100.00
10310;BME280;5200;43.236;27.986;2023-01-30T05:38:45;100352.78;;;-1.59;100.00
10310;BME280;5200;43.236;27.986;2023-01-30T05:41:14;100374.88;;;-1.52;100.00
10310;BME280;5200;43.236;27.986;2023-01-30T05:43:41;100359.72;;;-1.61;100.00
10310;BME280;5200;43.236;27.986;2023-01-30T05:46:10;100373.09;;;-1.50;100.00
10310;BME280;5200;43.236;27.986;2023-01-30T05:48:37;100365.94;;;-1.66;100.00
10310;BME280;5200;43.236;27.986;2023-01-30T05:51:05;100362.34;;;-1.62;100.00
10310;BME280;5200;43.236;27.986;2023-01-30T05:53:33;100386.66;;;-1.43;100.00
10310;BME280;5200;43.236;27.986;2023-01-30T05:56:03;100394.47;;;-1.46;100.00
10310;BME280;5200;43.236;27.986;2023-01-30T05:58:31;100398.44;;;-1.36;100.00
10310;BME280;5200;43.236;27.986;2023-01-30T06:01:01;100394.91;;;-1.33;100.00
10310;BME280;5200;43.236;27.986;2023-01-30T06:03:29;100360.41;;;-1.56;100.00
10310;BME280;5200;43.236;27.986;2023-01-30T06:05:56;100358.50;;;-1.51;100.00
10310;BME280;5200;43.236;27.986;2023-01-30T06:08:23;100363.31;;;-1.40;100.00
10310;BME280;5200;43.236;27.986;2023-01-30T06:10:51;100358.13;;;-1.40;100.00
10310;BME280;5200;43.236;27.986;2023-01-30T06:13:18;100390.16;;;-1.20;100.00
10310;BME280;5200;43.236;27.986;2023-01-30T06:15:45;100387.00;;;-1.29;100.00
10310;BME280;5200;43.236;27.986;2023-01-30T06:18:12;100389.13;;;-1.15;100.00
10310;BME280;5200;43.236;27.986;2023-01-30T06:20:39;100369.72;;;-1.26;100.00
10310;BME280;5200;43.236;27.986;2023-01-30T06:23:06;100378.03;;;-1.18;100.00
10310;BME280;5200;43.236;27.986;2023-01-30T06:25:32;100380.69;;;-1.20;100.00
10310;BME280;5200;43.236;27.986;2023-01-30T06:28:04;100385.75;;;-1.17;100.00
10310;BME280;5200;43.236;27.986;2023-01-30T06:30:30;100389.94;;;-1.14;100.00
10310;BME280;5200;43.236;27.986;2023-01-30T06:32:57;100352.66;;;-1.31;100.00
10310;BME280;5200;43.236;27.986;2023-01-30T06:35:24;100349.13;;;-1.28;100.00
10310;BME280;5200;43.236;27.986;2023-01-30T06:37:51;100371.56;;;-1.05;100.00
10310;BME280;5200;43.236;27.986;2023-01-30T06:40:18;100382.44;;;-0.97;100.00
10310;BME280;5200;43.236;27.986;2023-01-30T06:42:45;100380.75;;;-0.98;100.00
10310;BME280;5200;43.236;27.986;2023-01-30T06:45:14;100374.00;;;-1.02;100.00
10310;BME280;5200;43.236;27.986;2023-01-30T06:47:45;100377.97;;;-0.92;100.00
10310;BME280;5200;43.236;27.986;2023-01-30T06:50:12;100376.72;;;-0.81;100.00
10310;BME280;5200;43.236;27.986;2023-01-30T06:52:40;100374.75;;;-0.75;100.00
10310;BME280;5200;43.236;27.986;2023-01-30T06:55:08;100373.63;;;-0.68;100.00
10310;BME280;5200;43.236;27.986;2023-01-30T06:57:35;100377.75;;;-0.64;100.00
10310;BME280;5200;43.236;27.986;2023-01-30T07:00:03;100375.25;;;-0.65;100.00
10310;BME280;5200;43.236;27.986;2023-01-30T07:02:31;100362.94;;;-0.58;100.00
10310;BME280;5200;43.236;27.986;2023-01-30T07:05:00;100367.50;;;-0.65;100.00
10310;BME280;5200;43.236;27.986;2023-01-30T07:07:27;100348.84;;;-0.73;100.00
10310;BME280;5200;43.236;27.986;2023-01-30T07:09:54;100363.56;;;-0.52;100.00
10310;BME280;5200;43.236;27.986;2023-01-30T07:12:21;100364.16;;;-0.45;100.00
10310;BME280;5200;43.236;27.986;2023-01-30T07:14:49;100360.25;;;-0.33;100.00
10310;BME280;5200;43.236;27.986;2023-01-30T07:17:16;100352.25;;;-0.27;100.00
10310;BME280;5200;43.236;27.986;2023-01-30T07:19:44;100353.69;;;-0.20;100.00
10310;BME280;5200;43.236;27.986;2023-01-30T07:22:11;100354.34;;;-0.15;100.00
10310;BME280;5200;43.236;27.986;2023-01-30T07:24:38;100329.50;;;-0.19;100.00
10310;BME280;5200;43.236;27.986;2023-01-30T07:27:08;100362.94;;;0.08;100.00
10310;BME280;5200;43.236;27.986;2023-01-30T07:29:35;100349.22;;;0.06;100.00
10310;BME280;5200;43.236;27.986;2023-01-30T07:32:03;100354.53;;;0.23;100.00
10310;BME280;5200;43.236;27.986;2023-01-30T07:34:31;100353.13;;;0.36;100.00
10310;BME280;5200;43.236;27.986;2023-01-30T07:36:59;100340.06;;;0.39;100.00
10310;BME280;5200;43.236;27.986;2023-01-30T07:39:26;100343.28;;;0.45;100.00
10310;BME280;5200;43.236;27.986;2023-01-30T07:41:52;100339.47;;;0.53;100.00
10310;BME280;5200;43.236;27.986;2023-01-30T07:44:19;100348.31;;;0.68;100.00
10310;BME280;5200;43.236;27.986;2023-01-30T07:46:46;100340.69;;;0.65;100.00
10310;BME280;5200;43.236;27.986;2023-01-30T07:49:13;100319.72;;;0.51;100.00
10310;BME280;5200;43.236;27.986;2023-01-30T07:51:40;100350.91;;;0.68;100.00
10310;BME280;5200;43.236;27.986;2023-01-30T07:54:08;100309.53;;;0.48;100.00
10310;BME280;5200;43.236;27.986;2023-01-30T07:56:35;100324.06;;;0.50;100.00
10310;BME280;5200;43.236;27.986;2023-01-30T07:59:02;100348.00;;;0.76;100.00
10310;BME280;5200;43.236;27.986;2023-01-30T08:01:30;100310.25;;;0.70;100.00
10310;BME280;5200;43.236;27.986;2023-01-30T08:03:57;100316.00;;;0.77;100.00
10310;BME280;5200;43.236;27.986;2023-01-30T08:06:24;100337.69;;;0.95;100.00
10310;BME280;5200;43.236;27.986;2023-01-30T08:08:51;100334.69;;;1.04;100.00
10310;BME280;5200;43.236;27.986;2023-01-30T08:11:19;100328.34;;;1.10;100.00
10310;BME280;5200;43.236;27.986;2023-01-30T08:13:46;100301.03;;;1.02;100.00
10310;BME280;5200;43.236;27.986;2023-01-30T08:16:13;100326.81;;;1.24;100.00
10310;BME280;5200;43.236;27.986;2023-01-30T08:18:40;100295.19;;;1.18;100.00
10310;BME280;5200;43.236;27.986;2023-01-30T08:21:07;100325.34;;;1.38;100.00
10310;BME280;5200;43.236;27.986;2023-01-30T08:23:34;100289.84;;;1.21;100.00
10310;BME280;5200;43.236;27.986;2023-01-30T08:26:02;100316.97;;;1.50;100.00
10310;BME280;5200;43.236;27.986;2023-01-30T08:28:32;100320.06;;;1.58;100.00
10310;BME280;5200;43.236;27.986;2023-01-30T08:30:59;100313.28;;;1.56;100.00
10310;BME280;5200;43.236;27.986;2023-01-30T08:33:26;100290.28;;;1.48;100.00
10310;BME280;5200;43.236;27.986;2023-01-30T08:35:54;100317.66;;;1.73;100.00
10310;BME280;5200;43.236;27.986;2023-01-30T08:38:22;100305.34;;;1.76;100.00
10310;BME280;5200;43.236;27.986;2023-01-30T08:40:48;100275.06;;;1.59;100.00
10310;BME280;5200;43.236;27.986;2023-01-30T08:43:15;100300.31;;;1.73;99.92
10310;BME280;5200;43.236;27.986;2023-01-30T08:45:43;100264.06;;;1.54;99.41
10310;BME280;5200;43.236;27.986;2023-01-30T08:48:10;100269.66;;;1.64;99.65
10310;BME280;5200;43.236;27.986;2023-01-30T08:50:37;100299.38;;;1.93;98.96
10310;BME280;5200;43.236;27.986;2023-01-30T08:53:05;100292.50;;;1.92;99.08
10310;BME280;5200;43.236;27.986;2023-01-30T08:55:32;100276.31;;;2.04;98.85
10310;BME280;5200;43.236;27.986;2023-01-30T08:57:59;100280.03;;;2.16;99.00
10310;BME280;5200;43.236;27.986;2023-01-30T09:00:26;100274.91;;;2.32;97.82
10310;BME280;5200;43.236;27.986;2023-01-30T09:02:54;100236.38;;;2.24;97.38
10310;BME280;5200;43.236;27.986;2023-01-30T09:05:22;100260.28;;;2.47;96.43
10310;BME280;5200;43.236;27.986;2023-01-30T09:07:49;100267.94;;;2.50;95.42
10310;BME280;5200;43.236;27.986;2023-01-30T09:10:16;100256.31;;;2.57;94.52
10310;BME280;5200;43.236;27.986;2023-01-30T09:12:43;100265.31;;;2.83;94.68
10310;BME280;5200;43.236;27.986;2023-01-30T09:15:11;100254.09;;;2.99;93.83
10310;BME280;5200;43.236;27.986;2023-01-30T09:17:37;100255.63;;;3.18;94.10
10310;BME280;5200;43.236;27.986;2023-01-30T09:20:08;100244.25;;;3.51;92.48
10310;BME280;5200;43.236;27.986;2023-01-30T09:22:35;100241.56;;;3.83;91.88
10310;BME280;5200;43.236;27.986;2023-01-30T09:25:03;100226.47;;;4.18;89.93
10310;BME280;5200;43.236;27.986;2023-01-30T09:27:30;100222.69;;;4.38;87.11
10310;BME280;5200;43.236;27.986;2023-01-30T09:29:56;100228.34;;;4.59;86.71
10310;BME280;5200;43.236;27.986;2023-01-30T09:32:23;100222.94;;;4.77;84.99
10310;BME280;5200;43.236;27.986;2023-01-30T09:34:50;100221.59;;;4.98;85.07
10310;BME280;5200;43.236;27.986;2023-01-30T09:37:18;100215.41;;;5.14;83.63
10310;BME280;5200;43.236;27.986;2023-01-30T09:39:45;100215.44;;;4.99;82.57
10310;BME280;5200;43.236;27.986;2023-01-30T09:42:41;100208.66;;;4.97;83.67
10310;BME280;5200;43.236;27.986;2023-01-30T09:45:33;100208.50;;;5.13;83.55
10310;BME280;5200;43.236;27.986;2023-01-30T09:48:11;100206.47;;;5.18;83.07
10310;BME280;5200;43.236;27.986;2023-01-30T09:50:59;100170.53;;;5.08;82.13
10310;BME280;5200;43.236;27.986;2023-01-30T09:53:35;100186.13;;;5.23;82.76
10310;BME280;5200;43.236;27.986;2023-01-30T09:56:04;100165.69;;;5.29;82.35
10310;BME280;5200;43.236;27.986;2023-01-30T09:58:40;100185.25;;;5.49;81.39
10310;BME280;5200;43.236;27.986;2023-01-30T10:01:16;100184.66;;;5.59;80.30
10310;BME280;5200;43.236;27.986;2023-01-30T10:04:04;100187.34;;;5.44;80.32
10310;BME280;5200;43.236;27.986;2023-01-30T10:06:43;100150.53;;;5.22;81.12
10310;BME280;5200;43.236;27.986;2023-01-30T10:09:23;100166.47;;;5.44;82.02
10310;BME280;5200;43.236;27.986;2023-01-30T10:12:02;100173.59;;;5.68;81.68
10310;BME280;5200;43.236;27.986;2023-01-30T10:14:44;100159.75;;;5.93;81.13
10310;BME280;5200;43.236;27.986;2023-01-30T10:17:35;100151.94;;;6.06;79.78
10310;BME280;5200;43.236;27.986;2023-01-30T10:20:26;100147.44;;;6.08;78.09
10310;BME280;5200;43.236;27.986;2023-01-30T10:25:49;100130.81;;;5.83;79.52
10310;BME280;5200;43.236;27.986;2023-01-30T10:28:23;100131.44;;;6.12;77.82
10310;BME280;5200;43.236;27.986;2023-01-30T10:30:55;100135.81;;;6.38;77.17
10310;BME280;5200;43.236;27.986;2023-01-30T10:33:30;100118.81;;;6.56;76.50
10310;BME280;5200;43.236;27.986;2023-01-30T10:36:02;100130.25;;;6.79;74.96
10310;BME280;5200;43.236;27.986;2023-01-30T10:38:35;100118.22;;;7.01;72.80
10310;BME280;5200;43.236;27.986;2023-01-30T10:41:12;100120.84;;;7.01;73.02
10310;BME280;5200;43.236;27.986;2023-01-30T10:43:42;100111.56;;;6.96;72.38
10310;BME280;5200;43.236;27.986;2023-01-30T10:46:20;100097.97;;;6.91;73.78
10310;BME280;5200;43.236;27.986;2023-01-30T10:48:53;100100.94;;;6.87;73.57
10310;BME280;5200;43.236;27.986;2023-01-30T10:51:29;100102.47;;;6.65;73.93
10310;BME280;5200;43.236;27.986;2023-01-30T10:54:01;100099.72;;;6.43;74.36
10310;BME280;5200;43.236;27.986;2023-01-30T10:56:35;100086.00;;;6.52;74.11
10310;BME280;5200;43.236;27.986;2023-01-30T10:59:27;100078.00;;;6.42;73.78
10310;BME280;5200;43.236;27.986;2023-01-30T11:01:59;100087.72;;;6.40;73.45
10310;BME280;5200;43.236;27.986;2023-01-30T11:04:30;100069.81;;;6.47;73.47
10310;BME280;5200;43.236;27.986;2023-01-30T11:07:01;100056.69;;;6.35;72.05
10310;BME280;5200;43.236;27.986;2023-01-30T11:09:39;100057.09;;;6.29;71.79
10310;BME280;5200;43.236;27.986;2023-01-30T11:12:07;100067.94;;;6.12;72.10
10310;BME280;5200;43.236;27.986;2023-01-30T11:14:52;100055.91;;;6.09;72.40
10310;BME280;5200;43.236;27.986;2023-01-30T11:17:28;100051.44;;;5.99;71.75
10310;BME280;5200;43.236;27.986;2023-01-30T11:19:56;100046.00;;;6.02;72.96
10310;BME280;5200;43.236;27.986;2023-01-30T11:22:28;100040.75;;;6.02;73.52
10310;BME280;5200;43.236;27.986;2023-01-30T11:25:04;100030.78;;;5.96;73.94
10310;BME280;5200;43.236;27.986;2023-01-30T11:27:34;100024.69;;;5.82;73.88
10310;BME280;5200;43.236;27.986;2023-01-30T11:30:10;100023.22;;;5.78;73.96
10310;BME280;5200;43.236;27.986;2023-01-30T11:32:38;100021.88;;;5.72;74.42
10310;BME280;5200;43.236;27.986;2023-01-30T11:35:23;100005.50;;;5.83;75.19
10310;BME280;5200;43.236;27.986;2023-01-30T11:37:51;100009.03;;;5.95;73.49
10310;BME280;5200;43.236;27.986;2023-01-30T11:40:25;99999.84;;;6.02;75.00
10310;BME280;5200;43.236;27.986;2023-01-30T11:43:00;99980.81;;;6.00;75.30
10310;BME280;5200;43.236;27.986;2023-01-30T11:45:30;99985.84;;;5.90;75.99
10310;BME280;5200;43.236;27.986;2023-01-30T11:48:03;100001.09;;;5.71;77.54
10310;BME280;5200;43.236;27.986;2023-01-30T11:50:38;99986.28;;;5.59;78.19
10310;BME280;5200;43.236;27.986;2023-01-30T11:53:15;99988.47;;;5.52;79.25
10310;BME280;5200;43.236;27.986;2023-01-30T11:55:43;99975.06;;;5.20;81.04
10310;BME280;5200;43.236;27.986;2023-01-30T11:58:13;99986.94;;;5.11;81.55
10310;BME280;5200;43.236;27.986;2023-01-30T12:00:42;99980.84;;;4.98;80.24
10310;BME280;5200;43.236;27.986;2023-01-30T12:03:14;99983.63;;;4.69;79.82
10310;BME280;5200;43.236;27.986;2023-01-30T12:05:44;99968.09;;;4.68;79.72
10310;BME280;5200;43.236;27.986;2023-01-30T12:08:21;99968.94;;;4.68;80.81
10310;BME280;5200;43.236;27.986;2023-01-30T12:10:51;99955.25;;;4.64;80.65
10310;BME280;5200;43.236;27.986;2023-01-30T12:13:24;99950.47;;;4.71;80.25
10310;BME280;5200;43.236;27.986;2023-01-30T12:16:01;99958.53;;;4.81;79.37
10310;BME280;5200;43.236;27.986;2023-01-30T12:18:33;99927.41;;;4.65;78.95
10310;BME280;5200;43.236;27.986;2023-01-30T12:21:08;99951.84;;;4.77;78.45
10310;BME280;5200;43.236;27.986;2023-01-30T12:23:39;99938.06;;;4.62;78.65
10310;BME280;5200;43.236;27.986;2023-01-30T12:26:12;99952.50;;;4.53;78.80
10310;BME280;5200;43.236;27.986;2023-01-30T12:28:46;99922.44;;;4.35;79.69
10310;BME280;5200;43.236;27.986;2023-01-30T12:31:19;99945.13;;;4.47;80.06
10310;BME280;5200;43.236;27.986;2023-01-30T12:33:48;99935.97;;;4.54;80.29
10310;BME280;5200;43.236;27.986;2023-01-30T12:36:23;99924.72;;;4.66;79.64
10310;BME280;5200;43.236;27.986;2023-01-30T12:38:56;99923.47;;;4.59;78.73
10310;BME280;5200;43.236;27.986;2023-01-30T12:41:41;99924.50;;;4.57;78.80
10310;BME280;5200;43.236;27.986;2023-01-30T12:44:37;99914.91;;;4.57;78.61
10310;BME280;5200;43.236;27.986;2023-01-30T12:47:24;99917.59;;;4.56;78.25
10310;BME280;5200;43.236;27.986;2023-01-30T12:50:14;99922.50;;;4.60;78.77
10310;BME280;5200;43.236;27.986;2023-01-30T12:52:56;99918.84;;;4.50;78.29
10310;BME280;5200;43.236;27.986;2023-01-30T12:55:34;99922.56;;;4.33;78.88
10310;BME280;5200;43.236;27.986;2023-01-30T12:58:05;99921.25;;;4.13;78.20
10310;BME280;5200;43.236;27.986;2023-01-30T13:00:55;99905.88;;;3.96;78.50
10310;BME280;5200;43.236;27.986;2023-01-30T13:03:31;99910.63;;;3.89;79.74
10310;BME280;5200;43.236;27.986;2023-01-30T13:06:09;99909.88;;;3.87;79.61
10310;BME280;5200;43.236;27.986;2023-01-30T13:08:54;99912.97;;;3.79;79.68
10310;BME280;5200;43.236;27.986;2023-01-30T13:11:39;99907.97;;;3.62;81.28
10310;BME280;5200;43.236;27.986;2023-01-30T13:14:13;99900.94;;;3.50;82.46